Time;durP1;ratioP1;P1;durP2;ratioP2;P2;SDS_P1;SDS_P2;PMS_P1;PMS_P2;Temp;Humidity;BMP_temperature;BMP_pressure;BME280_temperature;BME280_humidity;BME280_pressure;Samples;Min_cycle;Max_cycle;Signal;HPM_P1;HPM_P2
2022/01/29 00:01:44;;;;;;;1999.90;999.90;;;5.70;99.90;;;;;;5052483;28;20454;-70
2022/01/29 00:04:11;;;;;;;1999.90;999.90;;;5.70;99.90;;;;;;5052744;28;20511;-70
2022/01/29 00:06:38;;;;;;;1999.90;999.90;;;5.80;99.90;;;;;;5052001;28;20489;-68
2022/01/29 00:09:07;;;;;;;1999.90;999.90;;;5.80;99.90;;;;;;5051538;28;21004;-70
2022/01/29 00:11:36;;;;;;;1999.90;999.90;;;5.70;99.90;;;;;;5051554;28;21119;-70
2022/01/29 00:14:03;;;;;;;1999.90;999.90;;;5.70;99.90;;;;;;5053213;28;20532;-70
2022/01/29 00:16:29;;;;;;;1999.90;999.90;;;5.70;99.90;;;;;;5053578;28;20443;-70
2022/01/29 00:18:56;;;;;;;1999.90;999.90;;;5.70;99.90;;;;;;5053680;28;20450;-70
2022/01/29 00:21:23;;;;;;;1999.90;999.90;;;5.70;99.90;;;;;;5052876;28;20459;-70
2022/01/29 00:23:49;;;;;;;1999.90;999.90;;;5.60;99.90;;;;;;5053554;28;20520;-70
2022/01/29 00:26:20;;;;;;;1999.90;999.90;;;5.60;99.90;;;;;;5053283;28;21071;-70
2022/01/29 00:28:48;;;;;;;1999.90;999.90;;;5.60;99.90;;;;;;5053223;28;20446;-70
2022/01/29 00:31:16;;;;;;;1999.90;999.90;;;5.60;99.90;;;;;;5052756;28;20549;-70
2022/01/29 00:33:42;;;;;;;1999.90;999.90;;;5.60;99.90;;;;;;5053110;28;20450;-70
2022/01/29 00:36:09;;;;;;;1999.90;999.90;;;5.60;99.90;;;;;;5053497;28;20539;-70
2022/01/29 00:38:36;;;;;;;1999.90;999.90;;;5.60;99.90;;;;;;5053006;28;20500;-70
2022/01/29 00:41:03;;;;;;;1999.90;999.90;;;5.60;99.90;;;;;;5053026;28;20450;-70
2022/01/29 00:43:30;;;;;;;1999.90;999.90;;;5.60;99.90;;;;;;5052402;28;20447;-71
2022/01/29 00:45:58;;;;;;;1999.90;999.90;;;5.60;99.90;;;;;;5052615;28;20484;-70
2022/01/29 00:48:24;;;;;;;1999.90;999.90;;;5.60;99.90;;;;;;5052883;28;20901;-70
2022/01/29 00:50:51;;;;;;;1999.90;999.90;;;5.60;99.90;;;;;;5052779;28;20487;-70
2022/01/29 00:53:18;;;;;;;1999.90;999.90;;;5.60;99.90;;;;;;5052589;28;20514;-69
2022/01/29 00:55:45;;;;;;;1999.90;999.90;;;5.60;99.90;;;;;;5053127;28;20450;-72
2022/01/29 00:58:12;;;;;;;1999.90;999.90;;;5.60;99.90;;;;;;5053349;28;20472;-70
2022/01/29 01:00:39;;;;;;;1999.90;999.90;;;5.60;99.90;;;;;;5052011;28;20492;-70
2022/01/29 01:03:07;;;;;;;1999.90;999.90;;;5.60;99.90;;;;;;5052710;28;20525;-71
2022/01/29 01:05:34;;;;;;;1999.90;999.90;;;5.60;99.90;;;;;;5052578;28;20485;-70
2022/01/29 01:08:00;;;;;;;1999.90;999.90;;;5.60;99.90;;;;;;5052755;28;20474;-70
2022/01/29 01:10:27;;;;;;;1999.90;999.90;;;5.60;99.90;;;;;;5052485;28;20450;-70
2022/01/29 01:12:54;;;;;;;1999.90;999.90;;;5.70;99.90;;;;;;5052368;28;20450;-70
2022/01/29 01:15:20;;;;;;;1999.90;999.90;;;5.60;99.90;;;;;;5052235;28;20446;-70
2022/01/29 01:17:47;;;;;;;1999.90;999.90;;;5.70;99.90;;;;;;5052680;28;20469;-70
2022/01/29 01:20:15;;;;;;;1999.90;999.90;;;5.60;99.90;;;;;;5051609;28;20499;-70
2022/01/29 01:22:42;;;;;;;1999.90;999.90;;;5.70;99.90;;;;;;5052590;28;20512;-70
2022/01/29 01:25:10;;;;;;;1999.90;999.90;;;5.60;99.90;;;;;;5051910;28;20500;-71
2022/01/29 01:27:36;;;;;;;1999.90;999.90;;;5.60;99.90;;;;;;5052306;28;20463;-70
2022/01/29 01:30:04;;;;;;;1999.90;999.90;;;5.60;99.90;;;;;;5051597;28;20450;-70
2022/01/29 01:32:31;;;;;;;1999.90;999.90;;;5.60;99.90;;;;;;5052545;28;20541;-70
2022/01/29 01:35:07;;;;;;;1999.90;999.90;;;5.60;99.90;;;;;;5052014;28;20508;-70
2022/01/29 01:37:41;;;;;;;1999.90;999.90;;;5.50;99.90;;;;;;5052103;28;20473;-70
2022/01/29 01:40:09;;;;;;;1999.90;999.90;;;5.60;99.90;;;;;;5051748;28;20450;-70
2022/01/29 01:42:36;;;;;;;1999.90;999.90;;;5.60;99.90;;;;;;5051958;28;21252;-71
2022/01/29 01:45:03;;;;;;;1999.90;999.90;;;5.70;99.90;;;;;;5051209;28;20442;-70
2022/01/29 01:47:30;;;;;;;1999.90;999.90;;;5.60;99.90;;;;;;5051958;28;20516;-70
2022/01/29 01:49:56;;;;;;;1999.90;999.90;;;5.60;99.90;;;;;;5051183;28;20443;-70
2022/01/29 01:52:23;;;;;;;1999.90;999.90;;;5.60;99.90;;;;;;5050435;28;20800;-70
2022/01/29 01:54:51;;;;;;;1999.90;999.90;;;5.50;99.90;;;;;;5050027;28;20450;-71
2022/01/29 01:57:18;;;;;;;1999.90;999.90;;;5.50;99.90;;;;;;5049913;28;20458;-71
2022/01/29 01:59:45;;;;;;;1999.90;999.90;;;5.60;99.90;;;;;;5050280;28;20986;-70
2022/01/29 02:02:11;;;;;;;1999.90;999.90;;;5.60;99.90;;;;;;5050446;28;20446;-71
2022/01/29 02:04:38;;;;;;;1999.90;999.90;;;5.70;99.90;;;;;;5050419;28;20447;-70
2022/01/29 02:07:05;;;;;;;1999.90;999.90;;;5.60;99.90;;;;;;5050573;28;20478;-70
2022/01/29 02:09:33;;;;;;;1999.90;999.90;;;5.70;99.90;;;;;;5051904;28;20450;-70
2022/01/29 02:12:03;;;;;;;1999.90;999.90;;;5.70;99.90;;;;;;5051167;28;20454;-71
2022/01/29 02:14:32;;;;;;;1999.90;999.90;;;5.70;99.90;;;;;;5051317;28;20456;-70
2022/01/29 02:17:00;;;;;;;1999.90;999.90;;;5.70;99.90;;;;;;5051580;28;20561;-70
2022/01/29 02:19:27;;;;;;;1999.90;999.90;;;5.70;99.90;;;;;;5051171;28;20443;-70
2022/01/29 02:21:56;;;;;;;1999.90;999.90;;;5.60;99.90;;;;;;5050426;28;20523;-70
2022/01/29 02:24:23;;;;;;;1999.90;999.90;;;5.70;99.90;;;;;;5051625;28;20476;-70
2022/01/29 02:26:50;;;;;;;1999.90;999.90;;;5.70;99.90;;;;;;5051112;28;20486;-70
2022/01/29 02:29:18;;;;;;;1999.90;999.90;;;5.60;99.90;;;;;;5051392;28;20858;-70
2022/01/29 02:31:47;;;;;;;1999.90;999.90;;;5.70;99.90;;;;;;5051474;28;20471;-70
2022/01/29 02:34:14;;;;;;;1999.90;999.90;;;5.70;99.90;;;;;;5051109;28;20553;-71
2022/01/29 02:36:42;;;;;;;1999.90;999.90;;;5.80;99.90;;;;;;5050962;28;20466;-72
2022/01/29 02:39:10;;;;;;;1999.90;999.90;;;5.80;99.90;;;;;;5055335;28;20450;-71
2022/01/29 02:41:39;;;;;;;1999.90;999.90;;;5.80;99.90;;;;;;5054805;28;20882;-71
2022/01/29 02:44:06;;;;;;;1999.90;999.90;;;5.80;99.90;;;;;;5055558;28;20449;-70
2022/01/29 02:46:48;;;;;;;1999.90;999.90;;;5.80;99.90;;;;;;5054846;28;21069;-70
2022/01/29 02:49:15;;;;;;;1999.90;999.90;;;5.80;99.90;;;;;;5053559;28;20450;-70
2022/01/29 02:51:45;;;;;;;1999.90;999.90;;;5.80;99.90;;;;;;5054203;28;20450;-70
2022/01/29 02:54:13;;;;;;;1999.90;999.90;;;5.80;99.90;;;;;;5055331;28;20536;-70
2022/01/29 02:56:40;;;;;;;1999.90;999.90;;;5.80;99.90;;;;;;5055100;28;20895;-70
2022/01/29 02:59:07;;;;;;;1999.90;999.90;;;5.90;99.90;;;;;;5050567;28;20526;-70
2022/01/29 03:01:34;;;;;;;1999.90;999.90;;;5.90;99.90;;;;;;5046021;28;20536;-70
2022/01/29 03:04:01;;;;;;;1999.90;999.90;;;5.90;99.90;;;;;;5055212;28;20870;-70
2022/01/29 03:06:28;;;;;;;1999.90;999.90;;;5.90;99.90;;;;;;5054645;28;20489;-70
2022/01/29 03:08:55;;;;;;;1999.90;999.90;;;5.90;99.90;;;;;;5054299;28;21004;-70
2022/01/29 03:11:23;;;;;;;1999.90;999.90;;;6.00;99.90;;;;;;5054617;28;20454;-70
2022/01/29 03:13:50;;;;;;;1999.90;999.90;;;6.00;99.90;;;;;;5055201;28;20861;-71
2022/01/29 03:16:17;;;;;;;1999.90;999.90;;;6.00;99.90;;;;;;5054311;28;20871;-70
2022/01/29 03:18:44;;;;;;;1999.90;999.90;;;6.00;99.90;;;;;;5054806;28;20520;-70
2022/01/29 03:21:11;;;;;;;1999.90;999.90;;;6.00;99.90;;;;;;5054014;28;20454;-70
2022/01/29 03:23:38;;;;;;;1999.90;999.90;;;6.00;99.90;;;;;;5054599;28;20503;-71
2022/01/29 03:26:05;;;;;;;1999.90;999.90;;;6.00;99.90;;;;;;5053939;28;20473;-70
2022/01/29 03:28:33;;;;;;;1999.90;999.90;;;6.00;99.90;;;;;;5054933;28;20886;-70
2022/01/29 03:30:59;;;;;;;1999.90;999.90;;;6.00;99.90;;;;;;5053592;28;20458;-70
2022/01/29 03:33:26;;;;;;;1999.90;999.90;;;6.00;99.90;;;;;;5052889;28;20500;-70
2022/01/29 03:35:53;;;;;;;1999.90;999.90;;;6.00;99.90;;;;;;5053910;28;20446;-71
2022/01/29 03:38:19;;;;;;;1999.90;999.90;;;6.00;99.90;;;;;;5053192;28;20466;-70
2022/01/29 03:40:49;;;;;;;1999.90;999.90;;;6.00;99.90;;;;;;5053261;28;20590;-70
2022/01/29 03:43:24;;;;;;;1999.90;999.90;;;6.00;99.90;;;;;;5052889;28;20458;-71
2022/01/29 03:45:52;;;;;;;1999.90;999.90;;;5.90;99.90;;;;;;5033574;28;20435;-70
2022/01/29 03:48:19;;;;;;;1999.90;999.90;;;5.90;99.90;;;;;;5048936;28;20466;-70
2022/01/29 03:50:45;;;;;;;1999.90;999.90;;;5.90;99.90;;;;;;5053218;28;20454;-69
2022/01/29 03:53:12;;;;;;;1999.90;999.90;;;5.80;99.90;;;;;;5052765;28;20454;-70
2022/01/29 03:55:39;;;;;;;1999.90;999.90;;;5.80;99.90;;;;;;5052495;28;20454;-70
2022/01/29 03:58:05;;;;;;;1999.90;999.90;;;5.80;99.90;;;;;;5053214;28;20462;-70
2022/01/29 04:00:32;;;;;;;1999.90;999.90;;;5.90;99.90;;;;;;5052981;28;20446;-70
2022/01/29 04:03:00;;;;;;;1999.90;999.90;;;5.90;99.90;;;;;;5052547;28;20446;-70
2022/01/29 04:05:27;;;;;;;1999.90;999.90;;;5.90;99.90;;;;;;5052738;28;20451;-71
2022/01/29 04:07:53;;;;;;;1999.90;999.90;;;5.90;99.90;;;;;;5052468;28;20486;-70
2022/01/29 04:10:22;;;;;;;1999.90;999.90;;;5.90;99.90;;;;;;5052724;28;20918;-70
2022/01/29 04:12:51;;;;;;;1999.90;999.90;;;5.90;99.90;;;;;;5052732;28;20454;-70
2022/01/29 04:15:18;;;;;;;1999.90;999.90;;;5.80;99.90;;;;;;5052614;28;20508;-70
2022/01/29 04:17:44;;;;;;;1999.90;999.90;;;5.90;99.90;;;;;;5051734;28;20466;-70
2022/01/29 04:20:13;;;;;;;1999.90;999.90;;;5.90;99.90;;;;;;5051944;28;20755;-70
2022/01/29 04:22:39;;;;;;;1999.90;999.90;;;5.80;99.90;;;;;;5052441;28;20874;-70
2022/01/29 04:25:07;;;;;;;1999.90;999.90;;;5.90;99.90;;;;;;5052581;28;20450;-69
2022/01/29 04:27:37;;;;;;;1999.90;999.90;;;5.90;99.90;;;;;;5052101;28;20490;-70
2022/01/29 04:30:09;;;;;;;1999.90;999.90;;;5.90;99.90;;;;;;4997048;28;1031983;-70
2022/01/29 04:32:57;;;;;;;1999.90;999.90;;;5.90;99.90;;;;;;5033418;28;20291;-70
2022/01/29 04:35:25;;;;;;;1999.90;999.90;;;5.90;99.90;;;;;;5050365;28;20443;-70
2022/01/29 04:37:52;;;;;;;1999.90;999.90;;;5.90;99.90;;;;;;5053017;28;20895;-70
2022/01/29 04:40:21;;;;;;;1999.90;999.90;;;5.90;99.90;;;;;;5053336;28;20459;-69
2022/01/29 04:42:47;;;;;;;1999.90;999.90;;;5.90;99.90;;;;;;5052971;28;20503;-70
2022/01/29 04:45:15;;;;;;;1999.90;999.90;;;5.90;99.90;;;;;;5054000;28;20455;-70
2022/01/29 04:47:41;;;;;;;1999.90;999.90;;;5.90;99.90;;;;;;5053022;28;20547;-70
2022/01/29 04:50:08;;;;;;;1999.90;999.90;;;5.90;99.90;;;;;;5052639;28;20462;-70
2022/01/29 04:52:36;;;;;;;1999.90;999.90;;;5.90;99.90;;;;;;5052802;28;20476;-70
2022/01/29 04:55:03;;;;;;;1999.90;999.90;;;5.90;99.90;;;;;;5052523;28;20458;-70
2022/01/29 04:57:30;;;;;;;1999.90;999.90;;;6.00;99.90;;;;;;5052108;28;20816;-70
2022/01/29 04:59:57;;;;;;;1999.90;999.90;;;6.00;99.90;;;;;;5052030;28;21148;-70
2022/01/29 05:02:23;;;;;;;1999.90;999.90;;;5.90;99.90;;;;;;5053118;28;20446;-70
2022/01/29 05:04:50;;;;;;;1999.90;999.90;;;5.90;99.90;;;;;;5052978;28;20481;-69
2022/01/29 05:07:16;;;;;;;1999.90;999.90;;;5.90;99.90;;;;;;5052354;28;20490;-70
2022/01/29 05:09:44;;;;;;;1999.90;999.90;;;5.90;99.90;;;;;;5052920;28;20885;-70
2022/01/29 05:12:18;;;;;;;1999.90;999.90;;;6.00;99.90;;;;;;5052028;28;20521;-70
2022/01/29 05:15:01;;;;;;;1999.90;999.90;;;6.00;99.90;;;;;;5052502;28;21080;-70
2022/01/29 05:28:25;;;;;;;1999.90;999.90;;;6.00;99.90;;;;;;5051013;28;20485;-70
2022/01/29 05:30:51;;;;;;;1999.90;999.90;;;6.00;99.90;;;;;;5051875;28;20488;-71
2022/01/29 05:33:18;;;;;;;1999.90;999.90;;;6.00;99.90;;;;;;5052640;28;20450;-70
2022/01/29 05:35:45;;;;;;;1999.90;999.90;;;6.00;99.90;;;;;;5052056;28;21006;-70
2022/01/29 05:38:11;;;;;;;1999.90;999.90;;;6.10;99.90;;;;;;5051793;28;21032;-70
2022/01/29 05:40:40;;;;;;;1999.90;999.90;;;6.00;99.90;;;;;;5051893;28;20493;-71
2022/01/29 05:43:07;;;;;;;1999.90;999.90;;;6.10;99.90;;;;;;5051039;28;21008;-70
2022/01/29 05:45:33;;;;;;;1999.90;999.90;;;6.00;99.90;;;;;;5052306;28;21003;-68
2022/01/29 05:48:00;;;;;;;1999.90;999.90;;;6.00;99.90;;;;;;5051605;28;20986;-70
2022/01/29 05:50:26;;;;;;;1999.90;999.90;;;6.10;99.90;;;;;;5052074;28;20507;-70
2022/01/29 05:52:53;;;;;;;1999.90;999.90;;;6.10;99.90;;;;;;5051361;28;20454;-70
2022/01/29 05:55:20;;;;;;;1999.90;999.90;;;6.10;99.90;;;;;;5051340;28;20446;-70
2022/01/29 05:57:48;;;;;;;1999.90;999.90;;;6.20;99.90;;;;;;5052126;28;20871;-70
2022/01/29 06:00:16;;;;;;;1999.90;999.90;;;6.20;99.90;;;;;;5051430;28;20829;-69
2022/01/29 06:02:42;;;;;;;1999.90;999.90;;;6.30;99.90;;;;;;5052473;28;20496;-70
2022/01/29 06:05:09;;;;;;;1999.90;999.90;;;6.20;99.90;;;;;;5051904;28;20477;-70
2022/01/29 06:07:36;;;;;;;1999.90;999.90;;;6.20;99.90;;;;;;5051276;28;20529;-71
2022/01/29 06:10:03;;;;;;;1999.90;999.90;;;6.20;99.90;;;;;;5051061;28;20455;-70
2022/01/29 06:12:30;;;;;;;1999.90;999.90;;;6.20;99.90;;;;;;5051761;28;20500;-70
2022/01/29 06:14:58;;;;;;;1999.90;999.90;;;6.30;99.90;;;;;;5051436;28;20537;-71
2022/01/29 06:17:24;;;;;;;1999.90;999.90;;;6.30;99.90;;;;;;5051744;28;20516;-70
2022/01/29 06:19:52;;;;;;;1999.90;999.90;;;6.30;99.90;;;;;;5052228;28;20830;-70
2022/01/29 06:22:19;;;;;;;1999.90;999.90;;;6.50;99.90;;;;;;5051960;28;20459;-70
2022/01/29 06:24:45;;;;;;;1999.90;999.90;;;6.50;99.90;;;;;;5050782;28;20828;-71
2022/01/29 06:27:12;;;;;;;1999.90;999.90;;;6.50;99.90;;;;;;5051618;28;20524;-70
2022/01/29 06:29:39;;;;;;;1999.90;999.90;;;6.40;99.90;;;;;;5051108;28;20958;-70
2022/01/29 06:32:08;;;;;;;1999.90;999.90;;;6.40;99.90;;;;;;5051587;28;20454;-70
2022/01/29 06:34:34;;;;;;;1999.90;999.90;;;6.50;99.90;;;;;;5051527;28;20446;-70
2022/01/29 06:37:01;;;;;;;1999.90;999.90;;;6.50;99.90;;;;;;5051489;28;20511;-70
2022/01/29 06:39:27;;;;;;;1999.90;999.90;;;6.50;99.90;;;;;;5049891;28;20499;-70
2022/01/29 06:41:54;;;;;;;1999.90;999.90;;;6.50;99.90;;;;;;5051069;28;21215;-70
2022/01/29 06:44:21;;;;;;;1999.90;999.90;;;6.50;99.90;;;;;;5050637;28;20446;-72
2022/01/29 06:46:47;;;;;;;1999.90;999.90;;;6.50;99.90;;;;;;5051393;28;20466;-69
2022/01/29 06:49:15;;;;;;;1999.90;999.90;;;6.60;99.90;;;;;;5050931;28;20531;-72
2022/01/29 06:51:42;;;;;;;1999.90;999.90;;;6.60;99.90;;;;;;5050437;28;20454;-70
2022/01/29 06:54:08;;;;;;;1999.90;999.90;;;6.60;99.90;;;;;;5052602;28;20442;-70
2022/01/29 06:56:35;;;;;;;1999.90;999.90;;;6.70;99.90;;;;;;5053260;28;20516;-69
2022/01/29 06:59:02;;;;;;;1999.90;999.90;;;6.70;99.90;;;;;;5052688;28;20446;-71
2022/01/29 07:01:28;;;;;;;1999.90;999.90;;;6.70;99.90;;;;;;5051894;28;20500;-71
2022/01/29 07:03:55;;;;;;;1999.90;999.90;;;6.80;99.90;;;;;;5051941;28;20826;-70
2022/01/29 07:06:23;;;;;;;1999.90;999.90;;;6.80;99.90;;;;;;5052557;28;20500;-70
2022/01/29 07:08:50;;;;;;;1999.90;999.90;;;6.90;99.90;;;;;;5052248;28;20481;-70
2022/01/29 07:11:19;;;;;;;1999.90;999.90;;;6.80;99.90;;;;;;5051733;28;20446;-70
2022/01/29 07:13:46;;;;;;;1999.90;999.90;;;6.80;99.90;;;;;;5052185;28;20446;-70
2022/01/29 07:16:13;;;;;;;1999.90;999.90;;;6.90;99.90;;;;;;5051498;28;20572;-70
2022/01/29 07:18:39;;;;;;;1999.90;999.90;;;6.80;99.90;;;;;;5052540;28;20470;-71
2022/01/29 07:21:06;;;;;;;1999.90;999.90;;;6.90;99.90;;;;;;5051005;28;20503;-70
2022/01/29 07:23:34;;;;;;;1999.90;999.90;;;6.80;99.90;;;;;;5052614;28;20442;-70
2022/01/29 07:26:01;;;;;;;1999.90;999.90;;;6.90;99.90;;;;;;5056242;28;20938;-71
2022/01/29 07:28:27;;;;;;;1999.90;999.90;;;6.90;99.90;;;;;;5056274;28;20482;-70
2022/01/29 07:30:54;;;;;;;1999.90;999.90;;;7.00;99.90;;;;;;5054642;28;20454;-72
2022/01/29 07:33:20;;;;;;;1999.90;999.90;;;7.00;99.90;;;;;;5057128;28;20504;-70
2022/01/29 07:35:47;;;;;;;1999.90;999.90;;;7.00;99.90;;;;;;5056218;28;21008;-71
2022/01/29 07:38:14;;;;;;;1999.90;999.90;;;7.00;99.90;;;;;;5056677;28;20462;-71
2022/01/29 07:40:42;;;;;;;1999.90;999.90;;;7.00;99.90;;;;;;5055612;28;20458;-71
2022/01/29 07:43:08;;;;;;;1999.90;999.90;;;7.00;99.90;;;;;;5056905;28;20450;-70
2022/01/29 07:45:35;;;;;;;1999.90;999.90;;;7.10;99.90;;;;;;5056277;28;20501;-70
2022/01/29 07:48:02;;;;;;;1999.90;999.90;;;7.10;99.90;;;;;;5056416;28;20593;-71
2022/01/29 07:50:28;;;;;;;1999.90;999.90;;;7.20;99.90;;;;;;5055852;28;20454;-71
2022/01/29 07:52:57;;;;;;;1999.90;999.90;;;7.20;99.90;;;;;;5056943;28;20450;-70
2022/01/29 07:55:24;;;;;;;1999.90;999.90;;;7.30;99.90;;;;;;5056579;28;20454;-71
2022/01/29 07:57:52;;;;;;;1999.90;999.90;;;7.30;99.90;;;;;;5055570;28;20484;-71
2022/01/29 08:00:19;;;;;;;1999.90;999.90;;;7.40;99.90;;;;;;5055103;28;20504;-70
2022/01/29 08:02:46;;;;;;;1999.90;999.90;;;7.40;99.90;;;;;;5053902;28;20450;-70
2022/01/29 08:05:12;;;;;;;1999.90;999.90;;;7.50;99.90;;;;;;5054540;28;20451;-71
2022/01/29 08:07:39;;;;;;;1999.90;999.90;;;7.50;99.90;;;;;;5056002;28;20555;-71
2022/01/29 08:10:06;;;;;;;1999.90;999.90;;;7.50;99.90;;;;;;5056314;28;21008;-73
2022/01/29 08:12:33;;;;;;;1999.90;999.90;;;7.60;99.90;;;;;;5054603;28;20454;-73
2022/01/29 08:15:01;;;;;;;1999.90;999.90;;;7.70;99.90;;;;;;5053944;28;20456;-73
2022/01/29 08:17:28;;;;;;;1999.90;999.90;;;7.60;99.90;;;;;;5054979;28;20467;-71
2022/01/29 08:19:54;;;;;;;1999.90;999.90;;;7.50;99.90;;;;;;5055631;28;20504;-71
2022/01/29 08:22:21;;;;;;;1999.90;999.90;;;7.50;99.90;;;;;;5055766;28;20446;-70
2022/01/29 08:24:48;;;;;;;1999.90;999.90;;;7.40;99.90;;;;;;5056134;28;20688;-70
2022/01/29 08:27:14;;;;;;;1999.90;999.90;;;7.50;99.90;;;;;;5056148;28;20470;-71
2022/01/29 08:29:41;;;;;;;1999.90;999.90;;;7.50;99.90;;;;;;5056082;28;20454;-71
2022/01/29 08:32:09;;;;;;;1999.90;999.90;;;7.50;99.90;;;;;;5055746;28;20427;-71
2022/01/29 08:34:36;;;;;;;1999.90;999.90;;;7.50;99.90;;;;;;5055985;28;20451;-71
2022/01/29 08:37:04;;;;;;;1999.90;999.90;;;7.60;99.90;;;;;;5056681;28;20470;-73
2022/01/29 08:39:31;;;;;;;1999.90;999.90;;;7.60;99.90;;;;;;5056080;28;20454;-69
2022/01/29 08:41:58;;;;;;;1999.90;999.90;;;7.70;99.90;;;;;;5054390;28;20938;-70
2022/01/29 08:44:24;;;;;;;1999.90;999.90;;;7.80;99.90;;;;;;5053901;28;20500;-70
2022/01/29 08:46:51;;;;;;;1999.90;999.90;;;7.80;99.90;;;;;;5053868;28;20466;-72
2022/01/29 08:49:20;;;;;;;1999.90;999.90;;;7.90;99.90;;;;;;5054962;28;20482;-71
2022/01/29 08:51:46;;;;;;;1999.90;999.90;;;7.90;99.90;;;;;;5054927;28;20492;-71
2022/01/29 08:54:13;;;;;;;1999.90;999.90;;;8.00;99.90;;;;;;5055058;28;20446;-71
2022/01/29 08:56:40;;;;;;;1999.90;999.90;;;8.00;99.90;;;;;;5054435;28;20469;-70
2022/01/29 08:59:06;;;;;;;1999.90;999.90;;;8.10;99.90;;;;;;5054363;28;20450;-71
2022/01/29 09:01:33;;;;;;;1999.90;999.90;;;8.20;99.90;;;;;;5054183;28;20478;-71
2022/01/29 09:04:00;;;;;;;1999.90;999.90;;;8.20;99.90;;;;;;5055206;28;20499;-70
2022/01/29 09:06:28;;;;;;;1999.90;999.90;;;8.20;99.90;;;;;;5053723;28;20503;-71
2022/01/29 09:08:55;;;;;;;1999.90;999.90;;;8.20;99.90;;;;;;5053911;28;20551;-70
2022/01/29 09:11:21;;;;;;;1999.90;999.90;;;8.20;99.90;;;;;;5054163;28;20454;-71
2022/01/29 09:13:48;;;;;;;1999.90;999.90;;;8.10;99.90;;;;;;5055096;28;20442;-70
2022/01/29 09:16:15;;;;;;;1999.90;999.90;;;8.00;99.90;;;;;;5055029;28;20857;-70
2022/01/29 09:18:42;;;;;;;1999.90;999.90;;;8.00;99.90;;;;;;5054069;28;20491;-72
2022/01/29 09:21:08;;;;;;;1999.90;999.90;;;8.10;99.90;;;;;;5053522;28;20442;-71
2022/01/29 09:23:36;;;;;;;1999.90;999.90;;;8.10;99.90;;;;;;5055330;28;20454;-71
2022/01/29 09:26:03;;;;;;;1999.90;999.90;;;8.10;99.90;;;;;;5054912;28;20979;-71
2022/01/29 09:28:30;;;;;;;1999.90;999.90;;;8.20;99.90;;;;;;5054173;28;20494;-71
2022/01/29 09:30:57;;;;;;;1999.90;999.90;;;8.20;99.90;;;;;;5054035;28;20512;-70
2022/01/29 09:33:23;;;;;;;1999.90;999.90;;;8.30;99.90;;;;;;5053745;28;20439;-70
2022/01/29 09:35:51;;;;;;;1999.90;999.90;;;8.40;99.90;;;;;;5054464;28;20447;-70
2022/01/29 09:38:17;;;;;;;1999.90;999.90;;;8.40;99.90;;;;;;5054496;28;20496;-71
2022/01/29 09:40:45;;;;;;;1999.90;999.90;;;8.40;99.90;;;;;;5053979;28;20500;-71
2022/01/29 09:43:12;;;;;;;1999.90;999.90;;;8.50;99.90;;;;;;5055399;28;20450;-71
2022/01/29 09:45:39;;;;;;;1999.90;999.90;;;8.50;99.90;;;;;;5053265;28;20541;-71
2022/01/29 09:48:06;;;;;;;1999.90;999.90;;;8.60;99.90;;;;;;5052710;28;20529;-71
2022/01/29 09:50:36;;;;;;;1999.90;999.90;;;8.60;99.90;;;;;;5052358;28;20446;-70
2022/01/29 09:53:04;;;;;;;1999.90;999.90;;;8.60;99.90;;;;;;5052850;28;20493;-71
2022/01/29 09:55:31;;;;;;;1999.90;999.90;;;8.60;99.90;;;;;;5052792;28;20446;-70
2022/01/29 09:58:00;;;;;;;1999.90;999.90;;;8.70;99.90;;;;;;5054011;28;20470;-71
2022/01/29 10:00:27;;;;;;;1999.90;999.90;;;8.60;99.90;;;;;;5053014;28;20495;-71
2022/01/29 10:03:14;;;;;;;1999.90;999.90;;;8.70;99.90;;;;;;5053610;28;20449;-70
2022/01/29 10:05:42;;;;;;;1999.90;999.90;;;8.80;99.90;;;;;;5052140;28;21114;-70
2022/01/29 10:08:09;;;;;;;1999.90;999.90;;;8.90;99.90;;;;;;5052069;28;20832;-70
2022/01/29 10:10:39;;;;;;;1999.90;999.90;;;9.00;99.90;;;;;;5051947;28;20454;-71
2022/01/29 10:13:29;;;;;;;1999.90;999.90;;;9.00;99.90;;;;;;5051446;28;20809;-71
2022/01/29 10:16:12;;;;;;;1999.90;999.90;;;9.00;99.90;;;;;;5052516;28;20427;-69
2022/01/29 10:18:40;;;;;;;1999.90;999.90;;;9.00;99.90;;;;;;5052953;28;20523;-71
2022/01/29 10:21:12;;;;;;;1999.90;999.90;;;9.00;99.90;;;;;;5053047;28;20500;-71
2022/01/29 10:23:39;;;;;;;1999.90;999.90;;;9.10;99.90;;;;;;5054048;28;20502;-71
2022/01/29 10:26:07;;;;;;;1999.90;999.90;;;9.00;99.90;;;;;;5052498;28;20438;-71
2022/01/29 10:28:35;;;;;;;1999.90;999.90;;;9.10;99.90;;;;;;5051811;28;20573;-71
2022/01/29 10:31:04;;;;;;;1999.90;999.90;;;9.20;99.90;;;;;;5051565;28;20488;-71
2022/01/29 10:33:33;;;;;;;1999.90;999.90;;;9.20;99.90;;;;;;5051092;28;20457;-70
2022/01/29 10:36:01;;;;;;;1999.90;999.90;;;9.40;99.90;;;;;;5051941;28;20457;-72
2022/01/29 10:38:30;;;;;;;1999.90;999.90;;;9.50;99.90;;;;;;5051540;28;20466;-71
2022/01/29 10:41:20;;;;;;;1999.90;999.90;;;9.50;99.90;;;;;;5051301;28;20469;-71
2022/01/29 10:44:10;;;;;;;1999.90;999.90;;;9.70;99.90;;;;;;5051462;28;20454;-71
2022/01/29 10:46:39;;;;;;;1999.90;999.90;;;9.70;99.90;;;;;;5052266;28;20474;-71
2022/01/29 10:49:06;;;;;;;1999.90;999.90;;;9.80;99.90;;;;;;5051669;28;20478;-70
2022/01/29 10:51:33;;;;;;;1999.90;999.90;;;9.80;99.90;;;;;;5051229;28;21006;-71
2022/01/29 10:54:17;;;;;;;1999.90;999.90;;;9.90;99.90;;;;;;5051648;28;20473;-71
2022/01/29 10:57:01;;;;;;;1999.90;999.90;;;9.90;99.90;;;;;;5051343;28;20492;-70
2022/01/29 10:59:32;;;;;;;1999.90;999.90;;;9.80;99.90;;;;;;5054002;28;20446;-69
2022/01/29 11:02:01;;;;;;;1999.90;999.90;;;9.80;99.90;;;;;;5055293;28;20484;-71
2022/01/29 11:04:29;;;;;;;1999.90;999.90;;;9.90;99.90;;;;;;5055219;28;20958;-72
2022/01/29 11:06:59;;;;;;;1999.90;999.90;;;9.90;99.90;;;;;;5055103;28;20478;-71
2022/01/29 11:09:28;;;;;;;1999.90;999.90;;;10.00;99.90;;;;;;5054940;28;20486;-72
2022/01/29 11:11:57;;;;;;;1999.90;999.90;;;10.00;99.90;;;;;;5055589;28;20441;-71
2022/01/29 11:14:25;;;;;;;1999.90;999.90;;;10.20;99.90;;;;;;5055273;28;20446;-72
2022/01/29 11:16:54;;;;;;;1999.90;999.90;;;10.20;99.90;;;;;;5055239;28;20465;-71
2022/01/29 11:19:21;;;;;;;1999.90;999.90;;;10.20;99.90;;;;;;5054881;28;20598;-71
2022/01/29 11:21:51;;;;;;;1999.90;999.90;;;10.10;99.90;;;;;;5054514;28;20495;-71
2022/01/29 11:24:20;;;;;;;1999.90;999.90;;;10.10;99.90;;;;;;5054725;28;20810;-71
2022/01/29 11:26:47;;;;;;;1999.90;999.90;;;10.10;99.90;;;;;;5055086;28;20462;-71
2022/01/29 11:29:24;;;;;;;1999.90;999.90;;;10.20;99.90;;;;;;5054870;28;20478;-71
2022/01/29 11:32:27;;;;;;;1999.90;999.90;;;10.40;99.90;;;;;;5054811;28;20484;-71
2022/01/29 11:35:11;;;;;;;1999.90;999.90;;;10.30;99.90;;;;;;5054993;28;20453;-71
2022/01/29 11:37:41;;;;;;;1999.90;999.90;;;10.20;99.90;;;;;;5052917;28;20461;-71
2022/01/29 11:40:20;;;;;;;1999.90;999.90;;;10.10;99.90;;;;;;5054669;28;20488;-71
2022/01/29 11:43:23;;;;;;;1999.90;999.90;;;10.00;99.90;;;;;;5054698;28;20422;-70
2022/01/29 11:45:54;;;;;;;1999.90;999.90;;;9.90;99.90;;;;;;5053733;28;20683;-71
2022/01/29 11:48:53;;;;;;;1999.90;999.90;;;9.90;99.90;;;;;;5054495;28;20458;-71
2022/01/29 11:51:41;;;;;;;1999.90;999.90;;;9.90;99.90;;;;;;5053537;28;20930;-71
2022/01/29 11:54:08;;;;;;;1999.90;999.90;;;9.80;99.90;;;;;;5051190;28;20847;-71
2022/01/29 11:56:38;;;;;;;1999.90;999.90;;;9.70;99.90;;;;;;5054272;28;20446;-73
2022/01/29 11:59:30;;;;;;;1999.90;999.90;;;9.60;99.90;;;;;;5053773;28;20452;-71
2022/01/29 12:01:59;;;;;;;1999.90;999.90;;;9.60;99.90;;;;;;5054328;28;20477;-71
2022/01/29 12:05:07;;;;;;;1999.90;999.90;;;9.50;99.90;;;;;;5054619;28;20450;-72
2022/01/29 12:07:37;;;;;;;1999.90;999.90;;;9.60;99.90;;;;;;5054023;28;20470;-71
2022/01/29 12:10:08;;;;;;;1999.90;999.90;;;9.60;99.90;;;;;;5053701;28;20549;-72
2022/01/29 12:12:35;;;;;;;1999.90;999.90;;;9.70;99.90;;;;;;5053815;28;20549;-71
2022/01/29 12:15:37;;;;;;;1999.90;999.90;;;9.70;99.90;;;;;;5053970;28;20507;-72
2022/01/29 12:18:08;;;;;;;1999.90;999.90;;;9.80;99.90;;;;;;5054041;28;20458;-71
2022/01/29 12:20:36;;;;;;;1999.90;999.90;;;9.80;99.90;;;;;;5053344;28;20480;-71
2022/01/29 12:23:05;;;;;;;1999.90;999.90;;;9.80;99.90;;;;;;5054127;28;20446;-71
2022/01/29 12:25:32;;;;;;;1999.90;999.90;;;9.70;99.90;;;;;;5053790;28;20446;-71
2022/01/29 12:28:01;;;;;;;1999.90;999.90;;;9.70;99.90;;;;;;5053852;28;20470;-71